Terminal Aerodrome Forecast
Issued by NWS Wilmington, NC

Home | Current Version | Previous Version | Text Only | Print | Product List | Glossary On
Versions: 1 2 3 4 5 6 7 8 9 10 11 12 13 14 15 16 17 18
000
FTUS42 KILM 280558 CCA
TAFFLO
TAF COR
KFLO 280558Z 2806/0106 02004KT P6SM OVC030
     FM280900 VRB03KT 4SM BR VCSH BKN015
      TEMPO 2810/2812 2SM BR OVC015
     FM281300 00000KT P6SM BKN020
     FM281600 17007KT P6SM BKN020
     FM281900 19010KT P6SM SCT250
     FM010400 19010KT P6SM BKN015=

USA.gov is the U.S. government's official web portal to all federal, state and local government web resources and services.